createdAt,value
2019-04-26T00:01:32.095Z,99984.86
2019-04-26T00:03:59.416Z,99989.94
2019-04-26T00:06:26.778Z,100005.90
2019-04-26T00:09:03.270Z,100014.25
2019-04-26T00:11:41.789Z,100025.92
2019-04-26T00:14:28.720Z,100030.36
2019-04-26T00:16:59.912Z,100027.28
2019-04-26T00:19:27.266Z,100038.56
2019-04-26T00:21:55.208Z,100027.61
2019-04-26T00:24:22.464Z,100009.67
2019-04-26T00:26:49.647Z,100012.30
2019-04-26T00:29:17.483Z,100010.98
2019-04-26T00:31:44.716Z,100019.92
2019-04-26T00:34:12.467Z,100029.46
2019-04-26T00:36:40.706Z,100055.91
2019-04-26T00:39:07.894Z,100069.53
2019-04-26T00:41:35.784Z,100062.52
2019-04-26T00:44:03.103Z,100048.54
2019-04-26T00:46:32.852Z,100036.00
2019-04-26T00:49:03.561Z,100024.62
2019-04-26T00:51:31.839Z,100024.03
2019-04-26T00:53:59.433Z,100034.42
2019-04-26T00:56:26.836Z,100058.25
2019-04-26T00:58:54.131Z,100072.42
2019-04-26T01:01:23.086Z,100076.06
2019-04-26T01:03:50.279Z,100076.16
2019-04-26T01:06:19.236Z,100078.34
2019-04-26T01:08:46.430Z,100085.29
2019-04-26T01:11:13.965Z,100088.09
2019-04-26T01:13:41.402Z,100083.73
2019-04-26T01:16:08.559Z,100088.20
2019-04-26T01:18:36.015Z,100080.92
2019-04-26T01:21:05.318Z,100074.86
2019-04-26T01:23:35.761Z,100062.95
2019-04-26T01:26:10.244Z,100067.92
2019-04-26T01:28:43.568Z,100075.20
2019-04-26T01:31:12.336Z,100091.28
2019-04-26T01:33:40.216Z,100082.97
2019-04-26T01:36:13.154Z,100071.90
2019-04-26T01:38:36.609Z,100073.17
2019-04-26T01:41:09.130Z,100073.56
2019-04-26T01:43:51.860Z,100075.65
2019-04-26T01:46:26.931Z,100073.13
2019-04-26T01:48:58.735Z,100075.18
2019-04-26T01:51:48.916Z,100071.73
2019-04-26T01:54:19.877Z,100072.94
2019-04-26T01:56:49.964Z,100067.25
2019-04-26T01:59:18.765Z,100071.05
2019-04-26T02:02:14.468Z,100083.31
2019-04-26T02:04:44.647Z,100078.63
2019-04-26T02:07:15.070Z,100068.33
2019-04-26T02:09:42.526Z,100082.37
2019-04-26T02:12:09.676Z,100090.61
2019-04-26T02:14:37.234Z,100083.28
2019-04-26T02:17:04.734Z,100087.02
2019-04-26T02:19:32.383Z,100084.87
2019-04-26T02:22:15.576Z,100086.02
2019-04-26T02:24:45.207Z,100103.84
2019-04-26T02:27:24.852Z,100120.05
2019-04-26T02:29:52.107Z,100127.11
2019-04-26T02:32:19.772Z,100113.00
2019-04-26T02:34:47.330Z,100120.66
2019-04-26T02:37:15.296Z,100123.53
2019-04-26T02:39:42.466Z,100129.09
2019-04-26T02:42:38.061Z,100127.80
2019-04-26T02:46:02.977Z,100121.39
2019-04-26T02:48:56.234Z,100128.77
2019-04-26T02:51:34.151Z,100130.34
2019-04-26T02:54:11.454Z,100129.17
2019-04-26T02:56:42.602Z,100140.77
2019-04-26T02:59:42.537Z,100139.10
2019-04-26T03:02:18.557Z,100130.42
2019-04-26T03:04:49.272Z,100139.54
2019-04-26T03:07:31.466Z,100136.95
2019-04-26T03:09:59.203Z,100136.55
2019-04-26T03:12:30.957Z,100141.02
2019-04-26T03:15:33.931Z,100136.84
2019-04-26T03:18:23.540Z,100134.20
2019-04-26T03:20:57.145Z,100131.70
2019-04-26T03:23:45.723Z,100136.35
2019-04-26T03:26:44.993Z,100151.16
2019-04-26T03:29:37.456Z,100156.73
2019-04-26T03:32:50.405Z,100149.90
2019-04-26T03:35:23.354Z,100144.22
2019-04-26T03:38:03.908Z,100135.53
2019-04-26T03:40:48.758Z,100128.08
2019-04-26T03:43:36.832Z,100118.56
2019-04-26T03:46:22.271Z,100121.97
2019-04-26T03:49:05.441Z,100127.03
2019-04-26T03:51:59.358Z,100137.72
2019-04-26T03:54:30.086Z,100135.70
2019-04-26T03:57:17.170Z,100127.52
2019-04-26T04:00:47.016Z,100128.16
2019-04-26T04:03:38.248Z,100128.78
2019-04-26T04:06:11.876Z,100131.14
2019-04-26T04:08:48.786Z,100128.71
2019-04-26T04:11:20.918Z,100130.30
2019-04-26T04:14:00.054Z,100134.42
2019-04-26T04:16:48.686Z,100145.11
2019-04-26T04:20:14.349Z,100145.25
2019-04-26T04:22:45.899Z,100145.89
2019-04-26T04:25:22.188Z,100154.17
2019-04-26T04:28:03.422Z,100162.27
2019-04-26T04:30:50.843Z,100161.17
2019-04-26T04:34:08.280Z,100163.89
2019-04-26T04:36:44.520Z,100172.21
2019-04-26T04:39:22.372Z,100160.75
2019-04-26T04:42:39.233Z,100157.34
2019-04-26T04:46:05.088Z,100160.83
2019-04-26T04:49:31.049Z,100164.45
2019-04-26T04:52:21.029Z,100167.44
2019-04-26T04:55:05.131Z,100174.73
2019-04-26T04:57:58.188Z,100173.12
2019-04-26T05:01:02.547Z,100166.93
2019-04-26T05:03:47.514Z,100171.88
2019-04-26T05:06:38.298Z,100168.46
2019-04-26T05:09:21.430Z,100172.55
2019-04-26T05:12:05.100Z,100182.27
2019-04-26T05:15:10.464Z,100195.78
2019-04-26T05:18:01.643Z,100193.56
2019-04-26T05:20:33.996Z,100197.41
2019-04-26T05:23:37.163Z,100203.03
2019-04-26T05:26:53.650Z,100197.66
2019-04-26T05:30:10.002Z,100205.72
2019-04-26T05:33:09.901Z,100212.75
2019-04-26T05:35:57.312Z,100220.21
2019-04-26T05:38:47.819Z,100220.13
2019-04-26T05:42:34.042Z,100210.58
2019-04-26T05:45:59.524Z,100214.83
2019-04-26T05:48:40.667Z,100220.16
2019-04-26T05:51:38.033Z,100210.69
2019-04-26T05:54:48.220Z,100212.66
2019-04-26T05:58:04.522Z,100223.99
2019-04-26T06:01:16.220Z,100228.64
2019-04-26T06:04:29.855Z,100235.91
2019-04-26T06:07:16.180Z,100246.66
2019-04-26T06:10:15.442Z,100263.56
2019-04-26T06:13:09.664Z,100275.20
2019-04-26T06:16:10.213Z,100281.64
2019-04-26T06:19:21.892Z,100288.47
2019-04-26T06:22:09.581Z,100294.07
2019-04-26T06:24:46.154Z,100299.98
2019-04-26T06:27:45.744Z,100300.12
2019-04-26T06:30:19.591Z,100298.23
2019-04-26T06:33:42.652Z,100293.94
2019-04-26T06:36:16.755Z,100297.61
2019-04-26T06:39:28.033Z,100299.23
2019-04-26T06:42:59.154Z,100292.62
2019-04-26T06:46:15.441Z,100285.52
2019-04-26T06:49:23.146Z,100282.33
2019-04-26T06:51:58.403Z,100281.61
2019-04-26T06:54:56.355Z,100280.79
2019-04-26T06:58:14.770Z,100286.97
2019-04-26T07:01:09.056Z,100280.50
2019-04-26T07:04:07.772Z,100289.54
2019-04-26T07:06:44.570Z,100298.83
2019-04-26T07:09:15.188Z,100308.17
2019-04-26T07:12:36.868Z,100312.64
2019-04-26T07:15:28.332Z,100319.11
2019-04-26T07:18:29.022Z,100320.55
2019-04-26T07:21:31.564Z,100316.09
2019-04-26T07:24:54.678Z,100329.45
2019-04-26T07:28:03.183Z,100337.53
2019-04-26T07:30:47.256Z,100338.08
2019-04-26T07:34:00.788Z,100335.80
2019-04-26T07:37:22.347Z,100330.52
2019-04-26T07:40:43.198Z,100350.19
2019-04-26T07:43:55.501Z,100354.38
2019-04-26T07:47:32.552Z,100367.64
2019-04-26T07:51:09.418Z,100364.73
2019-04-26T07:54:28.337Z,100365.55
2019-04-26T08:01:36.090Z,100362.63
2019-04-26T08:07:36.027Z,100376.45
2019-04-26T08:10:31.976Z,100377.27
2019-04-26T08:13:25.807Z,100367.53
2019-04-26T08:16:23.530Z,100360.91
2019-04-26T08:18:59.596Z,100354.55
2019-04-26T08:21:42.593Z,100354.45
2019-04-26T08:24:28.099Z,100357.72
2019-04-26T08:27:29.029Z,100366.98
2019-04-26T08:30:22.622Z,100368.56
2019-04-26T08:33:12.816Z,100375.09
2019-04-26T08:39:09.580Z,100371.23
2019-04-26T08:45:13.538Z,100400.03
2019-04-26T08:48:22.407Z,100404.39
2019-04-26T08:51:20.526Z,100415.88
2019-04-26T08:55:02.022Z,100408.62
2019-04-26T08:57:43.693Z,100417.48
2019-04-26T09:00:47.407Z,100412.08
2019-04-26T09:03:36.543Z,100407.69
2019-04-26T09:06:29.717Z,100407.72
2019-04-26T09:08:59.461Z,100412.81
2019-04-26T09:11:33.385Z,100419.22
2019-04-26T09:14:00.471Z,100417.99
2019-04-26T09:16:27.890Z,100423.33
2019-04-26T09:18:59.336Z,100429.09
2019-04-26T09:21:42.581Z,100433.44
2019-04-26T09:24:25.118Z,100437.09
2019-04-26T09:27:17.213Z,100441.19
2019-04-26T09:30:12.527Z,100434.28
2019-04-26T09:32:53.254Z,100445.93
2019-04-26T09:35:20.816Z,100448.55
2019-04-26T09:37:48.190Z,100449.12
2019-04-26T09:40:21.518Z,100439.26
2019-04-26T09:43:10.592Z,100440.50
2019-04-26T09:45:55.334Z,100445.95
2019-04-26T09:48:28.434Z,100440.58
2019-04-26T09:50:56.018Z,100447.70
2019-04-26T09:53:23.268Z,100439.38
2019-04-26T09:55:50.846Z,100449.78
2019-04-26T09:58:18.164Z,100454.59
2019-04-26T10:00:48.510Z,100452.69
2019-04-26T10:03:14.583Z,100451.84
2019-04-26T10:05:41.782Z,100446.59
2019-04-26T10:08:13.104Z,100443.93
2019-04-26T10:10:38.809Z,100436.67
2019-04-26T10:13:31.932Z,100439.45
2019-04-26T10:16:13.244Z,100439.23
2019-04-26T10:18:43.804Z,100438.98
2019-04-26T10:21:11.086Z,100448.32
2019-04-26T10:23:43.314Z,100466.55
2019-04-26T10:26:11.205Z,100471.09
2019-04-26T10:28:39.714Z,100469.06
2019-04-26T10:31:07.122Z,100476.47
2019-04-26T10:33:36.496Z,100474.58
2019-04-26T10:36:04.219Z,100473.76
2019-04-26T10:38:32.533Z,100484.50
2019-04-26T10:41:00.110Z,100487.83
2019-04-26T10:43:40.834Z,100486.94
2019-04-26T10:46:24.487Z,100490.00
2019-04-26T10:48:51.341Z,100487.55
2019-04-26T10:51:25.181Z,100486.16
2019-04-26T10:54:01.711Z,100487.19
2019-04-26T10:57:03.093Z,100483.68
2019-04-26T10:59:39.892Z,100471.92
2019-04-26T11:02:12.181Z,100469.22
2019-04-26T11:04:41.507Z,100465.59
2019-04-26T11:07:08.699Z,100455.95
2019-04-26T11:09:36.801Z,100462.86
2019-04-26T11:12:04.446Z,100467.53
2019-04-26T11:14:34.214Z,100462.01
2019-04-26T11:17:01.489Z,100458.55
2019-04-26T11:19:31.908Z,100454.20
2019-04-26T11:21:58.353Z,100461.09
2019-04-26T11:24:26.838Z,100466.69
2019-04-26T11:26:54.466Z,100456.30
2019-04-26T11:29:24.987Z,100463.22
2019-04-26T11:31:54.157Z,100461.89
2019-04-26T11:34:23.582Z,100455.48
2019-04-26T11:39:44.043Z,100454.02
2019-04-26T11:42:13.149Z,100460.38
2019-04-26T11:44:44.457Z,100461.43
2019-04-26T11:47:13.458Z,100462.99
2019-04-26T11:50:16.078Z,100461.84
2019-04-26T11:52:44.608Z,100455.28
2019-04-26T11:55:20.088Z,100464.99
2019-04-26T11:57:55.632Z,100462.03
2019-04-26T12:00:34.058Z,100465.21
2019-04-26T12:03:01.477Z,100472.70
2019-04-26T12:05:41.889Z,100467.35
2019-04-26T12:08:12.278Z,100473.14
2019-04-26T12:10:40.447Z,100477.50
2019-04-26T12:13:09.055Z,100474.62
2019-04-26T12:15:38.972Z,100476.09
2019-04-26T12:18:09.579Z,100483.06
2019-04-26T12:20:35.625Z,100480.87
2019-04-26T12:23:02.854Z,100482.87
2019-04-26T12:25:31.173Z,100490.19
2019-04-26T12:28:01.833Z,100487.77
2019-04-26T12:30:27.901Z,100492.33
2019-04-26T12:32:55.330Z,100494.84
2019-04-26T12:35:22.850Z,100497.87
2019-04-26T12:37:50.726Z,100496.69
2019-04-26T12:40:19.595Z,100491.00
2019-04-26T12:42:47.587Z,100489.55
2019-04-26T12:45:36.125Z,100499.89
2019-04-26T12:48:07.866Z,100511.13
2019-04-26T12:50:36.805Z,100516.59
2019-04-26T12:53:03.534Z,100517.36
2019-04-26T12:55:30.908Z,100514.36
2019-04-26T12:57:58.075Z,100515.37
2019-04-26T13:00:28.450Z,100514.81
2019-04-26T13:02:56.153Z,100508.86
2019-04-26T13:05:23.323Z,100506.56
2019-04-26T13:07:52.434Z,100517.04
2019-04-26T13:10:44.946Z,100512.62
2019-04-26T13:13:17.566Z,100507.94
2019-04-26T13:16:08.265Z,100510.25
2019-04-26T13:18:35.546Z,100501.16
2019-04-26T13:21:04.165Z,100500.06
2019-04-26T13:23:31.643Z,100510.80
2019-04-26T13:25:59.563Z,100513.24
2019-04-26T13:28:28.262Z,100509.58
2019-04-26T13:30:55.446Z,100511.77
2019-04-26T13:33:23.254Z,100514.20
2019-04-26T13:36:02.839Z,100515.13
2019-04-26T13:38:20.780Z,100517.00
2019-04-26T13:40:47.996Z,100518.08
2019-04-26T13:43:15.758Z,100504.81
2019-04-26T13:46:14.339Z,100515.75
2019-04-26T13:48:49.804Z,100507.92
2019-04-26T13:51:18.353Z,100508.58
2019-04-26T13:53:45.867Z,100509.54
2019-04-26T13:56:13.381Z,100510.20
2019-04-26T13:58:40.579Z,100509.33
2019-04-26T14:01:08.874Z,100510.39
2019-04-26T14:03:35.956Z,100514.14
2019-04-26T14:06:03.141Z,100513.19
2019-04-26T14:08:30.676Z,100521.73
2019-04-26T14:10:57.830Z,100520.14
2019-04-26T14:13:26.112Z,100528.77
2019-04-26T14:15:53.572Z,100526.95
2019-04-26T14:18:20.770Z,100515.30
2019-04-26T14:20:47.902Z,100515.58
2019-04-26T14:23:52.869Z,100510.80
2019-04-26T14:26:39.331Z,100506.34
2019-04-26T14:29:04.330Z,100508.16
2019-04-26T14:31:31.535Z,100506.48
2019-04-26T14:34:01.150Z,100509.32
2019-04-26T14:36:28.005Z,100516.33
2019-04-26T14:39:05.237Z,100521.32
2019-04-26T14:41:24.685Z,100519.50
2019-04-26T14:43:56.720Z,100513.41
2019-04-26T14:46:22.968Z,100514.58
2019-04-26T14:49:00.955Z,100513.30
2019-04-26T14:51:19.897Z,100509.97
2019-04-26T14:53:47.085Z,100511.98
2019-04-26T14:56:14.273Z,100521.80
2019-04-26T14:58:42.304Z,100528.06
2019-04-26T15:01:14.936Z,100527.02
2019-04-26T15:03:51.508Z,100526.94
2019-04-26T15:06:23.803Z,100527.09
2019-04-26T15:08:52.973Z,100532.68
2019-04-26T15:11:20.240Z,100523.33
2019-04-26T15:13:47.486Z,100520.93
2019-04-26T15:16:14.697Z,100523.17
2019-04-26T15:18:42.612Z,100534.02
2019-04-26T15:21:09.908Z,100538.26
2019-04-26T15:23:37.178Z,100551.09
2019-04-26T15:26:04.754Z,100552.08
2019-04-26T15:28:33.166Z,100557.83
2019-04-26T15:31:02.169Z,100546.78
2019-04-26T15:33:29.488Z,100542.83
2019-04-26T15:35:56.642Z,100537.23
2019-04-26T15:38:24.246Z,100537.61
2019-04-26T15:41:16.693Z,100528.91
2019-04-26T15:44:05.623Z,100526.98
2019-04-26T15:46:55.345Z,100530.27
2019-04-26T15:49:53.951Z,100532.41
2019-04-26T15:52:21.298Z,100534.25
2019-04-26T15:54:48.475Z,100543.09
2019-04-26T15:57:15.680Z,100536.81
2019-04-26T15:59:43.167Z,100537.75
2019-04-26T16:02:10.269Z,100533.88
2019-04-26T16:04:37.411Z,100534.81
2019-04-26T16:07:04.661Z,100538.45
2019-04-26T16:09:32.456Z,100538.20
2019-04-26T16:11:59.855Z,100536.17
2019-04-26T16:14:31.134Z,100543.13
2019-04-26T16:16:58.230Z,100544.97
2019-04-26T16:19:26.876Z,100551.14
2019-04-26T16:21:55.394Z,100548.97
2019-04-26T16:24:24.077Z,100547.48
2019-04-26T16:26:55.768Z,100548.81
2019-04-26T16:29:46.943Z,100542.84
2019-04-26T16:32:52.685Z,100545.22
2019-04-26T16:35:25.388Z,100537.81
2019-04-26T16:37:48.600Z,100544.05
2019-04-26T16:40:15.816Z,100533.36
2019-04-26T16:42:43.107Z,100538.23
2019-04-26T16:45:12.208Z,100533.61
2019-04-26T16:47:45.184Z,100535.16
2019-04-26T16:50:08.758Z,100537.55
2019-04-26T16:52:42.368Z,100538.53
2019-04-26T16:55:15.290Z,100529.77
2019-04-26T16:57:34.903Z,100541.52
2019-04-26T17:00:04.945Z,100549.00
2019-04-26T17:02:34.992Z,100548.47
2019-04-26T17:07:30.265Z,100556.67
2019-04-26T17:09:51.297Z,100551.31
2019-04-26T17:09:59.577Z,100557.92
2019-04-26T17:12:26.610Z,100561.56
2019-04-26T17:14:54.128Z,100561.70
2019-04-26T17:17:22.378Z,100567.31
2019-04-26T17:19:49.784Z,100573.55
2019-04-26T17:22:44.692Z,100579.37
2019-04-26T17:25:12.553Z,100577.64
2019-04-26T17:27:40.283Z,100574.58
2019-04-26T17:30:13.088Z,100582.34
2019-04-26T17:32:40.405Z,100574.00
2019-04-26T17:35:07.727Z,100580.20
2019-04-26T17:37:34.816Z,100575.73
2019-04-26T17:40:02.194Z,100573.19
2019-04-26T17:42:36.098Z,100567.98
2019-04-26T17:45:03.966Z,100566.48
2019-04-26T17:47:28.313Z,100559.47
2019-04-26T17:49:57.569Z,100562.08
2019-04-26T17:52:29.814Z,100564.69
2019-04-26T17:54:55.324Z,100571.77
2019-04-26T17:57:33.498Z,100568.33
2019-04-26T17:59:51.733Z,100564.23
2019-04-26T18:02:38.768Z,100565.21
2019-04-26T18:04:58.072Z,100567.94
2019-04-26T18:07:37.690Z,100574.75
2019-04-26T18:09:46.920Z,100574.41
2019-04-26T18:12:14.199Z,100576.84
2019-04-26T18:14:42.529Z,100572.29
2019-04-26T18:17:32.980Z,100580.84
2019-04-26T18:20:20.301Z,100586.61
2019-04-26T18:22:54.849Z,100594.52
2019-04-26T18:25:23.451Z,100597.38
2019-04-26T18:27:51.055Z,100597.92
2019-04-26T18:30:18.593Z,100598.55
2019-04-26T18:32:47.736Z,100611.48
2019-04-26T18:35:16.849Z,100617.71
2019-04-26T18:37:44.134Z,100615.06
2019-04-26T18:40:11.272Z,100610.92
2019-04-26T18:42:41.916Z,100614.89
2019-04-26T18:45:07.777Z,100615.80
2019-04-26T18:47:38.304Z,100611.78
2019-04-26T18:50:06.635Z,100613.74
2019-04-26T18:52:37.305Z,100620.09
2019-04-26T18:55:16.969Z,100624.00
2019-04-26T18:57:46.904Z,100630.79
2019-04-26T19:00:26.520Z,100634.48
2019-04-26T19:02:53.016Z,100639.47
2019-04-26T19:05:26.982Z,100640.44
2019-04-26T19:07:50.092Z,100641.24
2019-04-26T19:10:19.103Z,100642.56
2019-04-26T19:12:47.698Z,100643.32
2019-04-26T19:15:33.634Z,100649.56
2019-04-26T19:18:11.702Z,100645.53
2019-04-26T19:20:46.637Z,100643.13
2019-04-26T19:23:13.833Z,100643.86
2019-04-26T19:25:41.428Z,100644.37
2019-04-26T19:28:08.696Z,100641.30
2019-04-26T19:30:39.894Z,100645.92
2019-04-26T19:33:11.663Z,100639.58
2019-04-26T19:35:34.873Z,100648.53
2019-04-26T19:38:03.264Z,100654.31
2019-04-26T19:40:30.595Z,100649.02
2019-04-26T19:42:57.861Z,100653.51
2019-04-26T19:46:02.630Z,100646.41
2019-04-26T19:48:49.588Z,100656.14
2019-04-26T19:51:33.294Z,100648.22
2019-04-26T19:54:32.382Z,100652.78
2019-04-26T19:57:01.046Z,100658.73
2019-04-26T19:59:27.668Z,100657.80
2019-04-26T20:01:57.709Z,100651.45
2019-04-26T20:04:30.813Z,100660.71
2019-04-26T20:06:55.323Z,100660.85
2019-04-26T20:09:26.333Z,100668.52
2019-04-26T20:11:58.112Z,100669.86
2019-04-26T20:14:29.908Z,100671.06
2019-04-26T20:16:51.975Z,100666.37
2019-04-26T20:19:31.540Z,100674.53
2019-04-26T20:21:49.694Z,100670.33
2019-04-26T20:24:19.404Z,100669.73
2019-04-26T20:26:48.682Z,100670.09
2019-04-26T20:29:16.088Z,100671.66
2019-04-26T20:31:58.770Z,100661.47
2019-04-26T20:34:26.498Z,100661.71
2019-04-26T20:36:53.993Z,100668.06
2019-04-26T20:39:23.956Z,100677.19
2019-04-26T20:42:01.218Z,100677.04
2019-04-26T20:44:23.850Z,100678.85
2019-04-26T20:46:49.571Z,100680.52
2019-04-26T20:49:19.260Z,100682.67
2019-04-26T20:51:47.168Z,100681.70
2019-04-26T20:54:16.400Z,100683.27
2019-04-26T20:56:46.259Z,100680.95
2019-04-26T20:59:16.599Z,100694.16
2019-04-26T21:01:45.389Z,100691.40
2019-04-26T21:04:33.867Z,100682.17
2019-04-26T21:06:41.568Z,100672.64
2019-04-26T21:09:11.910Z,100674.55
2019-04-26T21:11:39.140Z,100669.77
2019-04-26T21:14:07.749Z,100661.83
2019-04-26T21:16:35.486Z,100656.16
2019-04-26T21:19:02.797Z,100651.38
2019-04-26T21:21:32.006Z,100647.68
2019-04-26T21:24:01.729Z,100652.98
2019-04-26T21:26:54.449Z,100648.08
2019-04-26T21:29:39.328Z,100648.36
2019-04-26T21:32:16.467Z,100644.88
2019-04-26T21:34:50.471Z,100638.65
2019-04-26T21:37:27.236Z,100630.71
2019-04-26T21:40:09.716Z,100634.70
2019-04-26T21:42:37.009Z,100636.58
2019-04-26T21:45:04.874Z,100641.77
2019-04-26T21:47:35.148Z,100649.46
2019-04-26T21:50:01.323Z,100643.46
2019-04-26T21:52:29.357Z,100655.08
2019-04-26T21:54:57.058Z,100665.38
2019-04-26T21:57:27.759Z,100670.66
2019-04-26T21:59:54.064Z,100676.67
2019-04-26T22:02:23.272Z,100682.80
2019-04-26T22:04:53.139Z,100685.55
2019-04-26T22:07:20.384Z,100686.75
2019-04-26T22:10:09.441Z,100689.39
2019-04-26T22:12:35.304Z,100674.78
2019-04-26T22:15:16.008Z,100673.34
2019-04-26T22:17:45.817Z,100675.38
2019-04-26T22:20:31.457Z,100679.44
2019-04-26T22:23:21.378Z,100679.08
2019-04-26T22:25:50.246Z,100684.00
2019-04-26T22:28:17.418Z,100678.38
2019-04-26T22:30:44.659Z,100680.52
2019-04-26T22:33:13.195Z,100680.27
2019-04-26T22:35:40.371Z,100675.25
2019-04-26T22:38:07.557Z,100680.30
2019-04-26T22:40:34.879Z,100672.73
2019-04-26T22:43:22.934Z,100675.49
2019-04-26T22:46:26.269Z,100676.91
2019-04-26T22:48:47.595Z,100679.09
2019-04-26T22:51:14.833Z,100677.77
2019-04-26T22:53:43.365Z,100676.10
2019-04-26T22:56:10.629Z,100681.37
2019-04-26T22:58:37.796Z,100679.91
2019-04-26T23:01:06.230Z,100677.77
2019-04-26T23:03:36.507Z,100685.55
2019-04-26T23:06:03.619Z,100679.09
2019-04-26T23:08:35.230Z,100684.02
2019-04-26T23:11:02.448Z,100683.16
2019-04-26T23:13:58.027Z,100682.44
2019-04-26T23:17:03.722Z,100684.70
2019-04-26T23:19:43.613Z,100683.14
2019-04-26T23:22:10.805Z,100684.95
2019-04-26T23:24:37.986Z,100682.91
2019-04-26T23:27:05.132Z,100685.55
2019-04-26T23:29:33.648Z,100683.73
2019-04-26T23:32:03.496Z,100679.18
2019-04-26T23:34:30.574Z,100684.73
2019-04-26T23:36:58.033Z,100685.80
2019-04-26T23:39:25.235Z,100695.25
2019-04-26T23:41:53.984Z,100686.77
2019-04-26T23:44:23.076Z,100684.23
2019-04-26T23:46:54.942Z,100679.31
2019-04-26T23:49:20.503Z,100682.07
2019-04-26T23:51:47.760Z,100682.79
2019-04-26T23:54:15.237Z,100677.41
2019-04-26T23:56:43.819Z,100672.47
2019-04-26T23:59:14.931Z,100665.41
